This is the latest recevied weather packets stored in our database for station/object KC3DGM. If no packets are shown the sender has not sent any weather packets the latest 10 day(s).
| Time | Temp. | Humidity | Pressure | Rain* | Wind** | Luminosity | Snow |
|---|---|---|---|---|---|---|---|
| 1777410340 | 18.33° C | 79% | 983.6 hPa | 0 mm | - | 127 W/m² | - |
| 1777410034 | 18.33° C | 79% | 984 hPa | 0 mm | - | 178 W/m² | - |
| 1777409728 | 18.33° C | 79% | 983.5 hPa | 0 mm | - | 101 W/m² | - |
| 1777409425 | 17.78° C | 81% | 984 hPa | 0 mm | - | 252 W/m² | - |
| 1777409120 | 17.78° C | 81% | 983.9 hPa | 0 mm | - | 194 W/m² | - |
| 1777408816 | 17.78° C | 82% | 984 hPa | 0 mm | - | 90 W/m² | - |
| 1777408513 | 17.22° C | 82% | 983.9 hPa | 0 mm | - | 149 W/m² | - |
| 1777408213 | 17.22° C | 81% | 984 hPa | 0 mm | - | 111 W/m² | - |
| 1777407908 | 17.78° C | 81% | 984 hPa | 0 mm | - | 151 W/m² | - |
| 1777407606 | 17.78° C | 81% | 984.3 hPa | 0 mm | - | 144 W/m² | - |
| 1777407306 | 17.22° C | 82% | 984.2 hPa | 0 mm | - | 158 W/m² | - |
| 1777407001 | 17.22° C | 82% | 984 hPa | 0 mm | - | 192 W/m² | - |
| 1777406696 | 17.22° C | 81% | 984 hPa | 0 mm | - | 131 W/m² | - |
| 1777406391 | 18.33° C | 79% | 984.4 hPa | 0 mm | - | 140 W/m² | - |
| 1777406091 | 17.78° C | 81% | 984.5 hPa | 0 mm | - | 145 W/m² | - |
| 1777405787 | 17.22° C | 81% | 984.4 hPa | 0 mm | - | 95 W/m² | - |
| 1777405483 | 16.67° C | 82% | 984.4 hPa | 0 mm | - | 176 W/m² | - |
| 1777405182 | 16.11° C | 85% | 984.6 hPa | 0 mm | - | 287 W/m² | - |
| 1777404878 | 16.11° C | 85% | 984.6 hPa | 0 mm | - | 113 W/m² | - |
| 1777404576 | 16.11° C | 84% | 984.8 hPa | 0 mm | - | 134 W/m² | - |
| 1777404272 | 15.56° C | 84% | 984.5 hPa | 0 mm | - | 313 W/m² | - |
| 1777403968 | 15.56° C | 86% | 985 hPa | 0 mm | - | 161 W/m² | - |
| 1777403662 | 15° C | 87% | 985.1 hPa | 0 mm | - | 101 W/m² | - |
| 1777403362 | 15° C | 86% | 985 hPa | 0 mm | - | 142 W/m² | - |
| 1777403062 | 15° C | 87% | 985 hPa | 0 mm | - | 85 W/m² | - |
* Rain latest hour (hover to see other rain measurements)
** Current wind speed in m/s (hover to see current wind gust speed)